CST,Max TemperatureF,Mean TemperatureF,Min TemperatureF,Max Dew PointF,MeanDew PointF,Min DewpointF,Max Humidity, Mean Humidity, Min Humidity, Max Sea Level PressureIn, Mean Sea Level PressureIn, Min Sea Level PressureIn, Max VisibilityMiles, Mean VisibilityMiles, Min VisibilityMiles, Max Wind SpeedMPH, Mean Wind SpeedMPH, Max Gust SpeedMPH,PrecipitationIn, CloudCover, Events, WindDirDegrees
2013-11-1,54,44,33,40,34,28,86,66,42,30.10,29.89,29.65,10,10,10,36,15,47,0.00,4,Rain,305
2013-11-2,60,44,29,29,26,21,83,55,23,30.16,30.05,29.81,10,10,10,21,9,28,0.00,0,,223
2013-11-3,55,46,38,36,32,28,83,62,46,29.80,29.66,29.55,10,10,10,23,16,30,0.00,0,,193
2013-11-4,49,41,33,37,31,26,97,70,42,30.11,29.96,29.72,10,10,10,23,9,31,0.02,4,Rain,329
2013-11-5,38,33,28,32,31,28,99,90,73,30.15,30.10,30.04,10,5,0,15,8,18,0.09,8,Snow,36
2013-11-6,43,34,24,33,28,24,99,87,64,30.26,30.16,30.12,10,9,0,13,6,,0.04,4,Fog,253
2013-11-7,50,38,27,32,30,26,94,76,44,30.39,30.27,30.03,10,10,10,14,7,16,0.00,0,,244
2013-11-8,61,48,36,38,33,28,78,63,33,30.02,29.81,29.67,10,10,10,23,15,31,0.00,1,,234
2013-11-9,53,42,32,32,30,27,85,64,39,30.34,30.16,29.97,10,10,10,15,8,22,0.00,3,,303
2013-11-10,57,43,29,40,33,26,87,72,50,30.33,30.20,30.08,10,10,10,26,8,32,0.00,1,,196
2013-11-11,35,24,14,32,19,9,96,78,57,30.72,30.47,30.13,10,10,7,21,11,26,0.00,4,Snow,3
2013-11-12,47,29,11,31,22,8,85,74,49,30.73,30.56,30.30,10,10,10,17,7,20,0.00,0,,205
2013-11-13,61,48,34,34,31,29,85,63,30,30.29,30.06,29.93,10,10,10,17,11,23,0.04,0,,234
2013-11-14,56,44,32,43,34,27,99,68,35,30.00,29.92,29.83,10,10,10,14,6,20,0.02,2,Rain,288
2013-11-15,59,46,34,38,34,29,90,68,34,29.83,29.62,29.43,10,10,10,28,12,33,0.00,0,,186
2013-11-16,55,44,33,36,27,18,96,58,23,29.42,29.34,29.29,10,10,10,31,10,40,0.00,1,,250
2013-11-17,44,35,26,36,28,22,87,72,56,30.05,29.70,29.38,10,10,10,28,9,34,0.00,2,,276
2013-11-18,56,39,22,25,21,17,89,58,23,30.14,30.07,29.99,10,10,7,13,5,,0.00,0,,197
2013-11-19,59,46,34,32,26,22,62,49,31,29.98,29.76,29.64,10,10,10,25,14,34,0.00,0,,192
2013-11-20,54,40,25,32,30,19,79,63,42,30.14,29.80,29.64,10,10,10,29,9,37,0.00,2,,328
2013-11-21,24,16,6,18,10,1,86,79,67,30.62,30.42,30.16,10,6,0,29,21,37,0.00,7,Snow,336
2013-11-22,32,14,-3,16,5,-7,87,69,45,30.64,30.56,30.49,10,10,10,13,8,,0.00,0,,266
2013-11-23,24,16,7,14,11,4,90,79,62,30.77,30.65,30.46,10,10,5,14,6,,0.00,3,Snow,163
2013-11-24,41,29,17,30,21,13,83,73,58,30.46,30.16,29.97,10,10,10,25,15,32,0.00,0,,206
2013-11-25,41,34,27,27,24,21,86,69,47,30.24,30.14,29.98,10,10,10,18,10,25,0.00,1,,312
2013-11-26,30,20,11,21,13,2,83,64,31,30.43,30.35,30.24,10,10,10,21,13,28,0.00,3,,327
2013-11-27,56,33,10,29,19,5,82,62,31,30.34,30.07,29.88,10,10,10,21,9,26,0.00,0,,235
2013-11-28,30,26,21,24,21,19,91,85,77,30.35,30.28,30.12,10,10,10,21,8,26,0.00,5,,4
2013-11-29,45,34,22,30,25,19,89,78,56,30.27,30.10,30.01,10,10,10,24,14,32,0.00,0,,204
2013-11-30,53,40,26,31,27,23,88,68,37,30.14,30.09,30.04,10,10,10,9,5,,0.00,0,,294